Station Historical Data
Daily Summary for January 26, 2017 Units:  English    Metric   Both
Next Day »
Daily Weekly Monthly Yearly Custom
  High: Low: Average:
Temperature: 45.4 °F 31.5 °F 37 °F
Dew Point: 37.6 °F 26.7 °F 31.6 °F
Humidity: 92% 58% 81%
Wind Speed: 13.0mph 0.0mph 0.5mph
Wind Gust: 14.0mph - -
Wind- - SW
Pressure: 30.57 in 30.45 in -
Precipitation: 0.00 in    
Historical Graphs
 
 
Tabular Data for January 26, 2017
Time Temperature Dew Point Pressure Wind Wind Speed Wind Gust Humidity Rainfall Rate (Hourly) solar Conditions
00:03 34.1 °F 32.0 °F 30.48 in Calm   5.0 mph 92% 0.00 in 0.00 W/m2
00:08 34.1 °F 32.0 °F 30.48 in East 2.0 mph 5.0 mph 92% 0.00 in 0.00 W/m2
00:13 34.1 °F 31.8 °F 30.47 in East 1.0 mph 6.0 mph 91% 0.00 in 0.00 W/m2
00:18 34.1 °F 31.8 °F 30.47 in East 1.0 mph 4.0 mph 91% 0.00 in 0.00 W/m2
00:23 34.1 °F 31.8 °F 30.47 in Calm   7.0 mph 91% 0.00 in 0.00 W/m2
00:28 34.1 °F 31.8 °F 30.47 in Calm   5.0 mph 91% 0.00 in 0.00 W/m2
00:33 34.1 °F 31.8 °F 30.47 in Calm   4.0 mph 91% 0.00 in 0.00 W/m2
00:38 34.1 °F 31.8 °F 30.46 in East 4.0 mph 11.0 mph 91% 0.00 in 0.00 W/m2
00:43 34.1 °F 31.8 °F 30.46 in East 13.0 mph 14.0 mph 91% 0.00 in 0.00 W/m2
00:48 34.1 °F 31.8 °F 30.46 in Calm   12.0 mph 91% 0.00 in 0.00 W/m2
00:51 34.1 °F 31.8 °F 30.45 in Calm   2.0 mph 91% 0.00 in 0.00 W/m2
00:54 34.0 °F 31.6 °F 30.45 in ESE 1.0 mph 12.0 mph 91% 0.00 in 0.00 W/m2
01:00 34.1 °F 31.8 °F 30.45 in ESE 1.0 mph 11.0 mph 91% 0.00 in 0.00 W/m2
01:04 34.1 °F 31.5 °F 30.45 in Calm   7.0 mph 90% 0.00 in 0.00 W/m2
01:09 34.1 °F 31.5 °F 30.45 in Calm   8.0 mph 90% 0.00 in 0.00 W/m2
01:14 34.1 °F 31.5 °F 30.45 in Calm   8.0 mph 90% 0.00 in 0.00 W/m2
01:19 34.2 °F 31.6 °F 30.46 in Calm   7.0 mph 90% 0.00 in 0.00 W/m2
01:24 34.2 °F 31.6 °F 30.46 in ESE 6.0 mph 6.0 mph 90% 0.00 in 0.00 W/m2
01:29 34.2 °F 31.3 °F 30.46 in Calm   6.0 mph 89% 0.00 in 0.00 W/m2
01:34 34.2 °F 31.3 °F 30.46 in ESE 4.0 mph 7.0 mph 89% 0.00 in 0.00 W/m2
01:39 34.3 °F 31.4 °F 30.46 in Calm   7.0 mph 89% 0.00 in 0.00 W/m2
01:45 34.3 °F 31.4 °F 30.46 in Calm   9.0 mph 89% 0.00 in 0.00 W/m2
01:50 34.2 °F 31.3 °F 30.46 in Calm   5.0 mph 89% 0.00 in 0.00 W/m2
01:55 34.2 °F 31.3 °F 30.46 in Calm   4.0 mph 89% 0.00 in 0.00 W/m2
02:00 34.2 °F 31.6 °F 30.46 in Calm   2.0 mph 90% 0.00 in 0.00 W/m2
02:05 34.2 °F 31.6 °F 30.46 in Calm   2.0 mph 90% 0.00 in 0.00 W/m2
02:10 34.1 °F 31.5 °F 30.46 in Calm   4.0 mph 90% 0.00 in 0.00 W/m2
02:15 34.0 °F 31.4 °F 30.46 in Calm   5.0 mph 90% 0.00 in 0.00 W/m2
02:20 33.9 °F 31.3 °F 30.46 in Calm     90% 0.00 in 0.00 W/m2
02:25 33.9 °F 31.3 °F 30.46 in ESE 5.0 mph 11.0 mph 90% 0.00 in 0.00 W/m2
02:30 33.8 °F 31.2 °F 30.47 in Calm     90% 0.00 in 0.00 W/m2
02:35 33.8 °F 31.2 °F 30.47 in Calm   1.0 mph 90% 0.00 in 0.00 W/m2
02:40 33.7 °F 31.1 °F 30.47 in Calm   1.0 mph 90% 0.00 in 0.00 W/m2
02:45 33.7 °F 31.1 °F 30.47 in Calm     90% 0.00 in 0.00 W/m2
02:50 33.7 °F 31.1 °F 30.47 in Calm   1.0 mph 90% 0.00 in 0.00 W/m2
02:55 33.6 °F 31.0 °F 30.47 in Calm     90% 0.00 in 0.00 W/m2
03:00 33.6 °F 31.0 °F 30.47 in Calm     90% 0.00 in 0.00 W/m2
03:05 33.5 °F 30.9 °F 30.47 in Calm     90% 0.00 in 0.00 W/m2
03:10 33.4 °F 30.8 °F 30.47 in Calm   2.0 mph 90% 0.00 in 0.00 W/m2
03:15 33.4 °F 30.8 °F 30.47 in Calm     90% 0.00 in 0.00 W/m2
03:20 33.2 °F 30.6 °F 30.47 in Calm     90% 0.00 in 0.00 W/m2
03:25 33.2 °F 30.6 °F 30.47 in Calm     90% 0.00 in 0.00 W/m2
03:30 33.1 °F 30.8 °F 30.47 in Calm     91% 0.00 in 0.00 W/m2
03:35 33.1 °F 30.8 °F 30.47 in Calm     91% 0.00 in 0.00 W/m2
03:40 33.1 °F 30.8 °F 30.48 in Calm     91% 0.00 in 0.00 W/m2
03:45 33.1 °F 30.8 °F 30.48 in Calm     91% 0.00 in 0.00 W/m2
03:50 33.1 °F 30.8 °F 30.48 in Calm   2.0 mph 91% 0.00 in 0.00 W/m2
03:55 33.1 °F 30.8 °F 30.48 in Calm     91% 0.00 in 0.00 W/m2
04:00 33.1 °F 30.8 °F 30.48 in Calm     91% 0.00 in 0.00 W/m2
04:05 33.1 °F 30.8 °F 30.48 in Calm     91% 0.00 in 0.00 W/m2
04:10 33.1 °F 30.8 °F 30.48 in Calm     91% 0.00 in 0.00 W/m2
04:15 33.1 °F 30.8 °F 30.48 in Calm     91% 0.00 in 0.00 W/m2
04:20 33.1 °F 30.8 °F 30.48 in Calm     91% 0.00 in 0.00 W/m2
04:25 33.1 °F 30.8 °F 30.48 in Calm     91% 0.00 in 0.00 W/m2
04:30 33.1 °F 30.8 °F 30.49 in Calm     91% 0.00 in 0.00 W/m2
04:35 33.2 °F 30.9 °F 30.49 in Calm     91% 0.00 in 0.00 W/m2
04:40 33.2 °F 30.9 °F 30.49 in Calm     91% 0.00 in 0.00 W/m2
04:45 33.2 °F 30.9 °F 30.49 in Calm     91% 0.00 in 0.00 W/m2
04:50 33.1 °F 30.5 °F 30.49 in Calm     90% 0.00 in 0.00 W/m2
04:55 33.2 °F 30.6 °F 30.49 in Calm     90% 0.00 in 0.00 W/m2
05:00 33.2 °F 30.9 °F 30.49 in Calm     91% 0.00 in 0.00 W/m2
05:05 33.2 °F 30.9 °F 30.49 in Calm     91% 0.00 in 0.00 W/m2
05:10 33.1 °F 30.8 °F 30.49 in Calm     91% 0.00 in 0.00 W/m2
05:15 33.1 °F 30.8 °F 30.49 in Calm     91% 0.00 in 0.00 W/m2
05:20 33.0 °F 30.4 °F 30.49 in Calm     90% 0.00 in 0.00 W/m2
05:25 33.0 °F 30.4 °F 30.49 in Calm     90% 0.00 in 0.00 W/m2
05:30 33.0 °F 30.4 °F 30.49 in Calm     90% 0.00 in 0.00 W/m2
05:35 33.0 °F 30.4 °F 30.49 in Calm   4.0 mph 90% 0.00 in 0.00 W/m2
05:40 32.9 °F 30.3 °F 30.49 in Calm     90% 0.00 in 0.00 W/m2
05:45 32.8 °F 30.2 °F 30.49 in Calm     90% 0.00 in 0.00 W/m2
05:50 32.9 °F 30.6 °F 30.49 in Calm     91% 0.00 in 0.00 W/m2
05:56 32.8 °F 30.5 °F 30.49 in Calm     91% 0.00 in 0.00 W/m2
06:01 32.8 °F 30.5 °F 30.49 in Calm     91% 0.00 in 0.00 W/m2
06:06 32.7 °F 30.4 °F 30.49 in Calm     91% 0.00 in 0.00 W/m2
06:11 32.7 °F 30.4 °F 30.49 in Calm   1.0 mph 91% 0.00 in 0.00 W/m2
06:16 32.6 °F 30.3 °F 30.49 in Calm   4.0 mph 91% 0.00 in 0.00 W/m2
06:21 32.5 °F 30.2 °F 30.49 in Calm   1.0 mph 91% 0.00 in 0.00 W/m2
06:26 32.5 °F 30.2 °F 30.49 in Calm     91% 0.00 in 0.00 W/m2
06:31 32.5 °F 30.2 °F 30.49 in ESE 4.0 mph 4.0 mph 91% 0.00 in 0.00 W/m2
06:36 32.4 °F 30.1 °F 30.49 in Calm   5.0 mph 91% 0.00 in 0.00 W/m2
06:41 32.4 °F 30.1 °F 30.49 in Calm     91% 0.00 in 0.00 W/m2
06:46 32.3 °F 30.0 °F 30.49 in Calm   2.0 mph 91% 0.00 in 0.00 W/m2
06:51 32.2 °F 29.6 °F 30.49 in Calm     90% 0.00 in 0.00 W/m2
06:56 32.1 °F 29.8 °F 30.50 in Calm     91% 0.00 in 0.00 W/m2
07:01 32.1 °F 29.8 °F 30.50 in Calm     91% 0.00 in 0.00 W/m2
07:06 32.0 °F 29.7 °F 30.50 in Calm     91% 0.00 in 0.00 W/m2
07:11 31.9 °F 29.6 °F 30.50 in Calm     91% 0.00 in 5.00 W/m2
07:16 31.8 °F 29.5 °F 30.50 in Calm     91% 0.00 in 5.00 W/m2
07:21 31.8 °F 29.5 °F 30.50 in ESE 4.0 mph 5.0 mph 91% 0.00 in 9.00 W/m2
07:26 31.7 °F 29.4 °F 30.50 in Calm     91% 0.00 in 11.00 W/m2
07:31 31.6 °F 29.3 °F 30.50 in Calm     91% 0.00 in 14.00 W/m2
07:36 31.6 °F 29.3 °F 30.50 in Calm     91% 0.00 in 18.00 W/m2
07:41 31.6 °F 29.3 °F 30.50 in Calm     91% 0.00 in 21.00 W/m2
07:46 31.5 °F 29.2 °F 30.50 in ESE 2.0 mph 2.0 mph 91% 0.00 in 30.00 W/m2
07:51 31.6 °F 29.3 °F 30.50 in Calm     91% 0.00 in 65.00 W/m2
07:56 31.6 °F 29.3 °F 30.50 in Calm     91% 0.00 in 84.00 W/m2
08:01 31.7 °F 29.4 °F 30.50 in ESE 2.0 mph 4.0 mph 91% 0.00 in 109.00 W/m2
08:06 31.8 °F 29.8 °F 30.50 in Calm     92% 0.00 in 88.00 W/m2
08:11 31.9 °F 29.6 °F 30.50 in Calm     91% 0.00 in 160.00 W/m2
08:16 32.0 °F 29.9 °F 30.51 in Calm     92% 0.00 in 83.00 W/m2
08:22 32.2 °F 30.1 °F 30.51 in Calm     92% 0.00 in 83.00 W/m2
08:27 32.4 °F 30.3 °F 30.51 in Calm     92% 0.00 in 95.00 W/m2
08:32 32.7 °F 30.6 °F 30.51 in Calm     92% 0.00 in 97.00 W/m2
08:37 32.8 °F 30.5 °F 30.51 in Calm     91% 0.00 in 93.00 W/m2
08:42 33.0 °F 30.7 °F 30.51 in Calm     91% 0.00 in 146.00 W/m2
08:47 33.2 °F 30.9 °F 30.51 in Calm     91% 0.00 in 104.00 W/m2
08:52 33.4 °F 31.1 °F 30.51 in Calm     91% 0.00 in 181.00 W/m2
08:57 33.5 °F 31.2 °F 30.51 in Calm     91% 0.00 in 165.00 W/m2
09:02 33.6 °F 31.3 °F 30.51 in Calm     91% 0.00 in 262.00 W/m2
09:07 33.7 °F 31.4 °F 30.51 in Calm     91% 0.00 in 95.00 W/m2
09:12 33.8 °F 31.5 °F 30.51 in Calm     91% 0.00 in 276.00 W/m2
09:17 33.9 °F 31.6 °F 30.51 in Calm     91% 0.00 in 352.00 W/m2
09:22 34.1 °F 31.8 °F 30.52 in Calm     91% 0.00 in 360.00 W/m2
09:27 34.2 °F 31.9 °F 30.52 in Calm     91% 0.00 in 374.00 W/m2
09:32 34.4 °F 32.0 °F 30.52 in Calm     91% 0.00 in 385.00 W/m2
09:37 34.7 °F 32.3 °F 30.52 in Calm     91% 0.00 in 396.00 W/m2
09:42 34.8 °F 32.2 °F 30.52 in Calm     90% 0.00 in 408.00 W/m2
09:47 35.2 °F 32.6 °F 30.52 in Calm     90% 0.00 in 420.00 W/m2
09:52 35.4 °F 32.8 °F 30.52 in Calm     90% 0.00 in 431.00 W/m2
09:57 35.7 °F 33.1 °F 30.52 in Calm     90% 0.00 in 441.00 W/m2
10:02 36.0 °F 32.5 °F 30.52 in Calm     87% 0.00 in 454.00 W/m2
10:07 36.7 °F 31.1 °F 30.53 in Calm     80% 0.00 in 462.00 W/m2
10:12 37.7 °F 30.5 °F 30.53 in Calm   2.0 mph 75% 0.00 in 473.00 W/m2
10:17 38.4 °F 31.5 °F 30.53 in Calm   1.0 mph 76% 0.00 in 483.00 W/m2
10:22 38.8 °F 31.2 °F 30.53 in Calm   1.0 mph 74% 0.00 in 490.00 W/m2
10:27 39.2 °F 32.0 °F 30.53 in Calm   3.0 mph 75% 0.00 in 499.00 W/m2
10:32 39.5 °F 32.2 °F 30.53 in East 1.0 mph 1.0 mph 75% 0.00 in 506.00 W/m2
10:37 39.8 °F 31.5 °F 30.53 in ENE 3.0 mph 3.0 mph 72% 0.00 in 515.00 W/m2
10:42 40.0 °F 31.7 °F 30.53 in NNE 1.0 mph 2.0 mph 72% 0.00 in 524.00 W/m2
10:47 40.2 °F 30.9 °F 30.53 in NNE 1.0 mph 1.0 mph 69% 0.00 in 531.00 W/m2
10:52 40.6 °F 30.1 °F 30.53 in North 1.0 mph 3.0 mph 66% 0.00 in 538.00 W/m2
10:57 41.0 °F 31.6 °F 30.53 in North 1.0 mph 4.0 mph 69% 0.00 in 541.00 W/m2
11:02 41.2 °F 30.3 °F 30.53 in North 1.0 mph 2.0 mph 65% 0.00 in 547.00 W/m2
11:07 41.4 °F 30.5 °F 30.53 in Calm   2.0 mph 65% 0.00 in 555.00 W/m2
11:12 41.6 °F 30.3 °F 30.52 in North 2.0 mph 2.0 mph 64% 0.00 in 561.00 W/m2
11:17 41.7 °F 29.3 °F 30.52 in Calm     61% 0.00 in 566.00 W/m2
11:22 41.9 °F 28.6 °F 30.52 in Calm   3.0 mph 59% 0.00 in 570.00 W/m2
11:27 42.0 °F 29.9 °F 30.52 in NNW 1.0 mph 1.0 mph 62% 0.00 in 573.00 W/m2
11:32 42.0 °F 29.9 °F 30.51 in Calm   1.0 mph 62% 0.00 in 577.00 W/m2
11:37 42.3 °F 30.6 °F 30.51 in NNW 1.0 mph 1.0 mph 63% 0.00 in 580.00 W/m2
11:42 42.4 °F 30.7 °F 30.51 in WNW 3.0 mph 3.0 mph 63% 0.00 in 582.00 W/m2
11:53 42.7 °F 30.6 °F 30.50 in Calm   5.0 mph 62% 0.00 in 587.00 W/m2
11:58 42.9 °F 30.4 °F 30.50 in WNW 1.0 mph 3.0 mph 61% 0.00 in 587.00 W/m2
12:03 43.1 °F 32.2 °F 30.50 in Calm   1.0 mph 65% 0.00 in 589.00 W/m2
12:08 43.3 °F 30.0 °F 30.50 in Calm   1.0 mph 59% 0.00 in 589.00 W/m2
12:13 43.7 °F 29.9 °F 30.50 in Calm   3.0 mph 58% 0.00 in 587.00 W/m2
12:18 43.9 °F 30.9 °F 30.50 in Calm   4.0 mph 60% 0.00 in 589.00 W/m2
12:23 44.0 °F 31.0 °F 30.50 in NW 1.0 mph 2.0 mph 60% 0.00 in 587.00 W/m2
12:28 44.0 °F 31.4 °F 30.50 in NW 2.0 mph 2.0 mph 61% 0.00 in 587.00 W/m2
12:33 44.1 °F 32.7 °F 30.49 in Calm   2.0 mph 64% 0.00 in 585.00 W/m2
12:38 44.2 °F 31.6 °F 30.49 in WNW 1.0 mph 2.0 mph 61% 0.00 in 584.00 W/m2
12:43 44.3 °F 31.7 °F 30.49 in West 2.0 mph 8.0 mph 61% 0.00 in 582.00 W/m2
12:48 44.4 °F 33.4 °F 30.49 in Calm   1.0 mph 65% 0.00 in 578.00 W/m2
12:53 44.3 °F 32.9 °F 30.49 in WNW 2.0 mph 3.0 mph 64% 0.00 in 573.00 W/m2
12:58 44.3 °F 33.3 °F 30.48 in Calm   9.0 mph 65% 0.00 in 570.00 W/m2
13:03 44.3 °F 33.3 °F 30.48 in NW 1.0 mph 2.0 mph 65% 0.00 in 570.00 W/m2
13:08 44.5 °F 33.1 °F 30.48 in West 4.0 mph 8.0 mph 64% 0.00 in 563.00 W/m2
13:13 44.7 °F 33.3 °F 30.48 in NW 6.0 mph 6.0 mph 64% 0.00 in 559.00 W/m2
13:18 44.9 °F 34.2 °F 30.48 in Calm   1.0 mph 66% 0.00 in 550.00 W/m2
13:23 44.9 °F 33.5 °F 30.48 in Calm   7.0 mph 64% 0.00 in 547.00 W/m2
13:28 45.0 °F 33.6 °F 30.48 in West 1.0 mph 1.0 mph 64% 0.00 in 540.00 W/m2
13:33 45.0 °F 34.7 °F 30.48 in Calm   1.0 mph 67% 0.00 in 534.00 W/m2
13:38 45.1 °F 33.7 °F 30.48 in NW 2.0 mph 3.0 mph 64% 0.00 in 524.00 W/m2
13:43 45.2 °F 33.8 °F 30.48 in Calm   2.0 mph 64% 0.00 in 519.00 W/m2
13:48 45.2 °F 33.8 °F 30.48 in West 1.0 mph 2.0 mph 64% 0.00 in 512.00 W/m2
13:53 45.3 °F 35.0 °F 30.48 in Calm   3.0 mph 67% 0.00 in 504.00 W/m2
13:59 45.2 °F 33.8 °F 30.48 in Calm   1.0 mph 64% 0.00 in 496.00 W/m2
14:04 45.4 °F 35.1 °F 30.48 in West 3.0 mph 7.0 mph 67% 0.00 in 489.00 W/m2
14:09 45.4 °F 35.1 °F 30.48 in West 1.0 mph 2.0 mph 67% 0.00 in 478.00 W/m2
14:14 45.3 °F 35.4 °F 30.48 in West 1.0 mph 2.0 mph 68% 0.00 in 468.00 W/m2
14:19 45.3 °F 34.6 °F 30.48 in Calm   1.0 mph 66% 0.00 in 457.00 W/m2
14:24 45.3 °F 35.4 °F 30.48 in WNW 2.0 mph 2.0 mph 68% 0.00 in 446.00 W/m2
14:29 45.4 °F 35.8 °F 30.48 in Calm   1.0 mph 69% 0.00 in 438.00 W/m2
14:34 45.3 °F 35.7 °F 30.48 in WNW 1.0 mph 8.0 mph 69% 0.00 in 427.00 W/m2
14:39 45.1 °F 35.9 °F 30.48 in West 1.0 mph 8.0 mph 70% 0.00 in 417.00 W/m2
14:44 45.1 °F 35.9 °F 30.48 in West 8.0 mph 8.0 mph 70% 0.00 in 404.00 W/m2
14:49 45.0 °F 36.2 °F 30.48 in Calm   8.0 mph 71% 0.00 in 394.00 W/m2
14:54 45.0 °F 36.9 °F 30.49 in WNW 3.0 mph 8.0 mph 73% 0.00 in 381.00 W/m2
14:59 44.9 °F 36.8 °F 30.49 in Calm   8.0 mph 73% 0.00 in 369.00 W/m2
15:04 44.9 °F 36.8 °F 30.49 in Calm   1.0 mph 73% 0.00 in 357.00 W/m2
15:09 45.0 °F 36.9 °F 30.48 in Calm   1.0 mph 73% 0.00 in 343.00 W/m2
15:14 45.0 °F 37.2 °F 30.48 in WNW 4.0 mph 8.0 mph 74% 0.00 in 330.00 W/m2
15:19 44.9 °F 37.1 °F 30.49 in WNW 1.0 mph 2.0 mph 74% 0.00 in 320.00 W/m2
15:24 44.9 °F 37.5 °F 30.48 in West 1.0 mph 2.0 mph 75% 0.00 in 304.00 W/m2
15:29 44.7 °F 37.3 °F 30.49 in NW 1.0 mph 8.0 mph 75% 0.00 in 292.00 W/m2
15:34 44.6 °F 37.2 °F 30.49 in Calm   8.0 mph 75% 0.00 in 279.00 W/m2
15:39 44.5 °F 36.7 °F 30.49 in West 1.0 mph 8.0 mph 74% 0.00 in 264.00 W/m2
15:44 44.4 °F 37.0 °F 30.49 in NW 1.0 mph 7.0 mph 75% 0.00 in 241.00 W/m2
15:50 44.3 °F 36.9 °F 30.48 in NW 4.0 mph 5.0 mph 75% 0.00 in 223.00 W/m2
15:55 44.3 °F 36.9 °F 30.48 in NW 1.0 mph 7.0 mph 75% 0.00 in 204.00 W/m2
15:59 44.2 °F 36.8 °F 30.48 in NW 1.0 mph 2.0 mph 75% 0.00 in 192.00 W/m2
16:00 44.2 °F 36.8 °F 30.48 in Calm   2.0 mph 75% 0.00 in 185.00 W/m2
16:01 44.2 °F 36.8 °F 30.48 in Calm   2.0 mph 75% 0.00 in 185.00 W/m2
16:04 44.1 °F 37.4 °F 30.48 in Calm   1.0 mph 77% 0.00 in 169.00 W/m2
16:09 43.8 °F 37.4 °F 30.48 in Calm   1.0 mph 78% 0.00 in 153.00 W/m2
16:14 43.4 °F 37.0 °F 30.48 in Calm   7.0 mph 78% 0.00 in 134.00 W/m2
16:19 43.3 °F 36.9 °F 30.48 in Calm   5.0 mph 78% 0.00 in 116.00 W/m2
16:24 43.2 °F 37.1 °F 30.48 in Calm   1.0 mph 79% 0.00 in 98.00 W/m2
16:29 43.1 °F 37.0 °F 30.48 in Calm   1.0 mph 79% 0.00 in 81.00 W/m2
16:34 43.0 °F 36.6 °F 30.49 in Calm   1.0 mph 78% 0.00 in 65.00 W/m2
16:39 43.0 °F 36.9 °F 30.49 in NW 1.0 mph 1.0 mph 79% 0.00 in 51.00 W/m2
16:44 42.7 °F 37.3 °F 30.49 in Calm   1.0 mph 81% 0.00 in 42.00 W/m2
16:49 42.4 °F 37.6 °F 30.49 in Calm   1.0 mph 83% 0.00 in 30.00 W/m2
16:54 42.0 °F 37.2 °F 30.49 in Calm   1.0 mph 83% 0.00 in 21.00 W/m2
16:59 41.6 °F 37.1 °F 30.49 in Calm   1.0 mph 84% 0.00 in 14.00 W/m2
17:04 41.5 °F 37.0 °F 30.49 in Calm   1.0 mph 84% 0.00 in 12.00 W/m2
17:09 41.2 °F 37.0 °F 30.49 in Calm     85% 0.00 in 11.00 W/m2
17:15 40.9 °F 36.8 °F 30.49 in Calm     85% 0.00 in 7.00 W/m2
17:20 40.7 °F 36.5 °F 30.50 in Calm     85% 0.00 in 5.00 W/m2
17:25 40.5 °F 36.7 °F 30.50 in Calm     86% 0.00 in 0.00 W/m2
17:30 40.2 °F 36.7 °F 30.50 in Calm     87% 0.00 in 0.00 W/m2
17:35 40.0 °F 36.5 °F 30.50 in Calm     87% 0.00 in 0.00 W/m2
17:40 39.8 °F 36.2 °F 30.50 in Calm     87% 0.00 in 0.00 W/m2
17:45 39.5 °F 36.0 °F 30.50 in Calm     87% 0.00 in 0.00 W/m2
17:50 39.2 °F 36.0 °F 30.50 in Calm     88% 0.00 in 0.00 W/m2
17:55 39.0 °F 35.8 °F 30.50 in Calm     88% 0.00 in 0.00 W/m2
18:00 38.7 °F 35.5 °F 30.50 in Calm     88% 0.00 in 0.00 W/m2
18:05 38.5 °F 35.5 °F 30.51 in Calm     89% 0.00 in 0.00 W/m2
18:10 38.3 °F 35.3 °F 30.51 in Calm     89% 0.00 in 0.00 W/m2
18:15 38.2 °F 35.2 °F 30.51 in Calm     89% 0.00 in 0.00 W/m2
18:20 38.0 °F 35.0 °F 30.51 in Calm     89% 0.00 in 0.00 W/m2
18:25 37.9 °F 34.7 °F 30.51 in Calm     88% 0.00 in 0.00 W/m2
18:30 37.7 °F 34.2 °F 30.51 in Calm     87% 0.00 in 0.00 W/m2
18:35 37.6 °F 34.1 °F 30.51 in Calm     87% 0.00 in 0.00 W/m2
18:40 37.5 °F 33.4 °F 30.51 in Calm   3.0 mph 85% 0.00 in 0.00 W/m2
18:45 37.4 °F 32.4 °F 30.51 in ENE 5.0 mph 8.0 mph 82% 0.00 in 0.00 W/m2
18:50 37.3 °F 31.7 °F 30.51 in Calm   10.0 mph 80% 0.00 in 0.00 W/m2
18:55 37.4 °F 31.8 °F 30.51 in ENE 1.0 mph 1.0 mph 80% 0.00 in 0.00 W/m2
19:00 37.3 °F 31.1 °F 30.51 in ENE 5.0 mph 11.0 mph 78% 0.00 in 0.00 W/m2
19:05 37.3 °F 31.4 °F 30.52 in Calm   1.0 mph 79% 0.00 in 0.00 W/m2
19:11 37.1 °F 30.6 °F 30.52 in Calm   1.0 mph 77% 0.00 in 0.00 W/m2
19:17 37.0 °F 29.8 °F 30.52 in Calm   1.0 mph 75% 0.00 in 0.00 W/m2
19:22 36.9 °F 30.4 °F 30.52 in Calm     77% 0.00 in 0.00 W/m2
19:24 36.8 °F 30.3 °F 30.52 in Calm   1.0 mph 77% 0.00 in 0.00 W/m2
19:27 36.8 °F 30.3 °F 30.52 in Calm     77% 0.00 in 0.00 W/m2
19:32 36.6 °F 29.8 °F 30.52 in Calm     76% 0.00 in 0.00 W/m2
19:37 36.4 °F 29.6 °F 30.52 in Calm     76% 0.00 in 0.00 W/m2
19:42 36.1 °F 29.6 °F 30.52 in Calm     77% 0.00 in 0.00 W/m2
19:47 35.9 °F 30.0 °F 30.52 in Calm     79% 0.00 in 0.00 W/m2
19:52 35.6 °F 29.4 °F 30.52 in Calm     78% 0.00 in 0.00 W/m2
19:57 35.4 °F 29.2 °F 30.52 in Calm     78% 0.00 in 0.00 W/m2
20:02 35.3 °F 28.8 °F 30.52 in Calm     77% 0.00 in 0.00 W/m2
20:07 35.3 °F 29.1 °F 30.52 in Calm     78% 0.00 in 0.00 W/m2
20:12 35.4 °F 29.2 °F 30.52 in Calm     78% 0.00 in 0.00 W/m2
20:17 35.3 °F 29.1 °F 30.52 in Calm     78% 0.00 in 0.00 W/m2
20:18 35.3 °F 28.8 °F 30.52 in Calm     77% 0.00 in 0.00 W/m2
20:23 35.3 °F 29.1 °F 30.52 in Calm     78% 0.00 in 0.00 W/m2
20:28 35.2 °F 29.0 °F 30.52 in Calm   1.0 mph 78% 0.00 in 0.00 W/m2
20:33 35.2 °F 29.0 °F 30.52 in Calm   1.0 mph 78% 0.00 in 0.00 W/m2
20:38 35.1 °F 28.3 °F 30.52 in Calm   1.0 mph 76% 0.00 in 0.00 W/m2
20:44 35.1 °F 28.6 °F 30.52 in Calm   1.0 mph 77% 0.00 in 0.00 W/m2
20:49 35.1 °F 27.7 °F 30.52 in Calm   1.0 mph 74% 0.00 in 0.00 W/m2
20:54 35.2 °F 28.7 °F 30.52 in North 1.0 mph 1.0 mph 77% 0.00 in 0.00 W/m2
20:59 35.2 °F 28.1 °F 30.52 in Calm   1.0 mph 75% 0.00 in 0.00 W/m2
21:04 35.2 °F 28.1 °F 30.52 in Calm   1.0 mph 75% 0.00 in 0.00 W/m2
21:09 35.2 °F 28.4 °F 30.52 in Calm   1.0 mph 76% 0.00 in 0.00 W/m2
21:14 35.0 °F 28.2 °F 30.53 in Calm   1.0 mph 76% 0.00 in 0.00 W/m2
21:19 34.9 °F 27.8 °F 30.53 in Calm   1.0 mph 75% 0.00 in 0.00 W/m2
21:24 34.9 °F 27.1 °F 30.53 in Calm   1.0 mph 73% 0.00 in 0.00 W/m2
21:29 34.9 °F 27.8 °F 30.53 in Calm   1.0 mph 75% 0.00 in 0.00 W/m2
21:34 34.8 °F 28.0 °F 30.53 in Calm   1.0 mph 76% 0.00 in 0.00 W/m2
21:39 34.7 °F 27.9 °F 30.53 in Calm   1.0 mph 76% 0.00 in 0.00 W/m2
21:44 34.6 °F 27.2 °F 30.53 in Calm   1.0 mph 74% 0.00 in 0.00 W/m2
21:50 34.5 °F 27.4 °F 30.53 in Calm   1.0 mph 75% 0.00 in 0.00 W/m2
21:55 34.5 °F 28.0 °F 30.53 in North 1.0 mph 1.0 mph 77% 0.00 in 0.00 W/m2
22:00 34.4 °F 27.6 °F 30.53 in North 1.0 mph 1.0 mph 76% 0.00 in 0.00 W/m2
22:05 34.3 °F 26.9 °F 30.54 in Calm     74% 0.00 in 0.00 W/m2
22:10 34.4 °F 27.3 °F 30.53 in Calm     75% 0.00 in 0.00 W/m2
22:15 34.5 °F 27.1 °F 30.53 in Calm     74% 0.00 in 0.00 W/m2
22:20 34.6 °F 27.2 °F 30.53 in Calm     74% 0.00 in 0.00 W/m2
22:25 34.6 °F 27.2 °F 30.54 in Calm     74% 0.00 in 0.00 W/m2
22:30 34.6 °F 27.2 °F 30.54 in Calm     74% 0.00 in 0.00 W/m2
22:35 34.7 °F 27.0 °F 30.55 in Calm     73% 0.00 in 0.00 W/m2
22:40 34.7 °F 27.0 °F 30.55 in Calm     73% 0.00 in 0.00 W/m2
22:45 34.7 °F 27.6 °F 30.56 in Calm     75% 0.00 in 0.00 W/m2
22:50 34.7 °F 27.3 °F 30.56 in Calm     74% 0.00 in 0.00 W/m2
22:55 34.6 °F 27.2 °F 30.56 in Calm     74% 0.00 in 0.00 W/m2
23:00 34.4 °F 26.7 °F 30.56 in Calm     73% 0.00 in 0.00 W/m2
23:05 34.3 °F 27.2 °F 30.56 in Calm     75% 0.00 in 0.00 W/m2
23:10 34.1 °F 27.3 °F 30.56 in Calm     76% 0.00 in 0.00 W/m2
23:15 33.9 °F 28.1 °F 30.56 in Calm     79% 0.00 in 0.00 W/m2
23:20 33.6 °F 27.8 °F 30.57 in Calm     79% 0.00 in 0.00 W/m2
23:25 33.4 °F 27.6 °F 30.57 in Calm     79% 0.00 in 0.00 W/m2
23:30 33.2 °F 27.1 °F 30.57 in Calm     78% 0.00 in 0.00 W/m2
23:35 33.1 °F 27.6 °F 30.57 in Calm     80% 0.00 in 0.00 W/m2
23:40 33.0 °F 27.8 °F 30.57 in Calm     81% 0.00 in 0.00 W/m2
23:45 32.9 °F 27.4 °F 30.57 in Calm     80% 0.00 in 0.00 W/m2
23:50 32.8 °F 27.3 °F 30.57 in Calm     80% 0.00 in 0.00 W/m2
23:55 32.7 °F 27.5 °F 30.57 in Calm   2.0 mph 81% 0.00 in 0.00 W/m2
Foresthill Weather
 WU-history PHP script courtesy of   Juneau County Weather.
powered by Cumulus v1.9.3 (1059)
Ambient Weather VWS v14.00
Top Contact Website Map Copyright © 2007 - 2018 Foresthillweather.com Never base important decisions on this or any weather information obtained from the Internet